サンパウロ/グアルーリョス の空港の天気 - METARとTAF

グアルーリョス国際空港 (サンパウロ) ( SBGR / GRU ) - ブラジル サンパウロ州サンパウロ市
飛行場実況気象(Metar)
観測時間02/17 20:00 BRT (02/17 23:00 UTC)
風向・風速東南東 1m/s
視程10km以上
天気現象
なし
気温21℃
湿度94%
気圧1014hPa
METARSBGR 172300Z 12002KT CAVOK 21/20 Q1014
過去の天気等 Google飛行場航空写真 Wunderground天気予報

過去48時間のMETAR

飛行場予報(TAF)
発表時間: 2/17 13:22 BRT (2/17 16:22 UTC)
予報対象時間: 17日15時 BRT ~ 18日21時 BRT
風向・風速西 4m/s
視程10km以上
全天の8割程度の雲 雲底高度 610m
17日15時 BRT から 確率 30% で
天気現象
全天の8割程度の雲 雲底高度 460m
17日17時 BRT ~ 17日19時 BRT に徐々に
風向・風速南 3m/s
17日21時 BRT ~ 17日23時 BRT に徐々に
風向・風速東北東 1m/s
少しの雲 雲底高度 610m
18日4時 BRT から 確率 30% で
視程4000m
天気現象もや
全天の8割程度の雲 雲底高度 150m
18日9時 BRT ~ 18日11時 BRT に徐々に
風向・風速北北西 4m/s
全天の8割程度の雲 雲底高度 910m
18日13時 BRT ~ 18日15時 BRT に徐々に
風向・風速南南西 3m/s
全天の4割程度の雲 雲底高度 910m
18日17時 BRT ~ 18日19時 BRT に徐々に
風向・風速南 4m/s
全天の4割程度の雲 雲底高度 460m
TAF SBGR 171622Z 1718/1824 26007KT 9999 BKN020 TX26/1718Z TN19/1808Z
PROB30 1718/1720 RA BKN015
BECMG 1720/1722 17005KT
BECMG 1800/1802 07002KT FEW020
PROB30 1807/1811 4000 BR BKN005
BECMG 1812/1814 34008KT BKN030
BECMG 1816/1818 20005KT SCT030
BECMG 1820/1822 17007KT SCT015 RMK PGQ